Time;durP1;ratioP1;P1;durP2;ratioP2;P2;SDS_P1;SDS_P2;PMS_P1;PMS_P2;Temp;Humidity;BMP_temperature;BMP_pressure;BME280_temperature;BME280_humidity;BME280_pressure;Samples;Min_cycle;Max_cycle;Signal;HPM_P1;HPM_P2
2021/05/11 00:00:30;;;;;;;1.30;1.10;;;9.70;99.90;;;;;;2056920;28;20259;-63
2021/05/11 00:01:30;;;;;;;1.30;1.20;;;9.70;99.90;;;;;;2056335;28;20609;-63
2021/05/11 00:02:31;;;;;;;1.70;0.93;;;9.70;99.90;;;;;;2056651;28;20434;-64
2021/05/11 00:03:32;;;;;;;1.30;1.00;;;9.70;99.90;;;;;;2056594;28;20188;-63
2021/05/11 00:04:33;;;;;;;1.40;1.20;;;9.70;99.90;;;;;;2056673;28;20193;-64
2021/05/11 00:05:34;;;;;;;1.30;1.20;;;9.70;99.90;;;;;;2056755;28;20177;-64
2021/05/11 00:06:34;;;;;;;1.27;1.10;;;9.70;99.90;;;;;;2058313;28;20176;-64
2021/05/11 00:07:35;;;;;;;2.83;1.30;;;9.70;99.90;;;;;;2058450;28;20552;-63
2021/05/11 00:08:36;;;;;;;1.40;1.30;;;9.70;99.90;;;;;;2058120;28;20179;-63
2021/05/11 00:09:36;;;;;;;1.50;1.40;;;9.70;99.90;;;;;;2058420;28;20592;-64
2021/05/11 00:10:37;;;;;;;1.30;1.20;;;9.70;99.90;;;;;;2058167;28;20176;-64
2021/05/11 00:11:38;;;;;;;1.30;1.20;;;9.80;99.90;;;;;;2057983;28;20226;-64
2021/05/11 00:12:39;;;;;;;2.33;1.33;;;9.80;99.90;;;;;;2057602;28;20663;-64
2021/05/11 00:13:39;;;;;;;1.10;1.00;;;9.80;99.90;;;;;;2057833;28;20227;-64
2021/05/11 00:14:40;;;;;;;1.20;1.10;;;9.80;99.90;;;;;;2067386;28;20179;-63
2021/05/11 00:15:41;;;;;;;1.20;1.10;;;9.80;99.90;;;;;;2066415;28;20176;-64
2021/05/11 00:16:42;;;;;;;1.10;1.00;;;9.90;99.90;;;;;;2066664;28;20645;-64
2021/05/11 00:17:43;;;;;;;1.17;1.07;;;9.80;99.90;;;;;;2066353;28;20177;-63
2021/05/11 00:18:44;;;;;;;4.13;1.10;;;9.80;99.90;;;;;;2066206;28;20206;-63
2021/05/11 00:19:45;;;;;;;1.40;1.10;;;9.90;99.90;;;;;;2066158;28;20271;-64
2021/05/11 00:20:45;;;;;;;2.00;1.10;;;9.90;99.90;;;;;;2066121;28;20177;-63
2021/05/11 00:21:46;;;;;;;1.50;1.20;;;9.80;99.90;;;;;;2066140;28;20198;-63
2021/05/11 00:22:48;;;;;;;1.27;1.17;;;9.80;99.90;;;;;;2066247;28;20192;-63
2021/05/11 00:23:49;;;;;;;1.70;1.40;;;9.80;99.90;;;;;;2066218;28;20194;-64
2021/05/11 00:24:49;;;;;;;2.23;1.30;;;9.80;99.90;;;;;;2066150;28;20174;-63
2021/05/11 00:25:50;;;;;;;1.50;1.23;;;9.80;99.90;;;;;;2066302;28;20175;-64
2021/05/11 00:26:51;;;;;;;2.30;1.20;;;9.70;99.90;;;;;;2066132;28;20676;-64
2021/05/11 00:27:51;;;;;;;1.30;1.20;;;9.80;99.90;;;;;;2066263;28;20176;-63
2021/05/11 00:28:52;;;;;;;1.43;1.30;;;9.80;99.90;;;;;;2066045;28;20185;-64
2021/05/11 00:29:53;;;;;;;1.57;1.20;;;9.80;99.90;;;;;;2066208;28;20175;-63
2021/05/11 00:30:53;;;;;;;2.03;1.10;;;9.90;99.90;;;;;;2065985;28;20553;-63
2021/05/11 00:31:54;;;;;;;2.30;1.20;;;9.90;99.90;;;;;;2065989;28;20196;-63
2021/05/11 00:32:55;;;;;;;1.20;1.10;;;9.90;99.90;;;;;;2066076;28;20184;-64
2021/05/11 00:33:56;;;;;;;1.70;1.17;;;10.00;99.90;;;;;;2066221;28;20643;-64
2021/05/11 00:34:56;;;;;;;1.53;1.20;;;10.00;99.90;;;;;;2066031;28;20178;-63
2021/05/11 00:35:57;;;;;;;1.43;1.33;;;10.00;99.90;;;;;;2065921;28;20188;-63
2021/05/11 00:36:58;;;;;;;1.37;1.27;;;10.00;99.90;;;;;;2066153;28;20238;-63
2021/05/11 00:37:58;;;;;;;1.80;1.47;;;10.00;99.90;;;;;;2066014;28;20736;-64
2021/05/11 00:39:00;;;;;;;1.30;1.20;;;10.00;99.90;;;;;;2066217;28;20274;-63
2021/05/11 00:40:00;;;;;;;1.75;1.10;;;10.00;99.90;;;;;;2066163;28;20196;-63
2021/05/11 00:41:01;;;;;;;1.30;1.20;;;10.00;99.90;;;;;;2065928;28;20188;-63
2021/05/11 00:42:02;;;;;;;1.63;1.20;;;10.00;99.90;;;;;;2065981;28;20212;-63
2021/05/11 00:43:03;;;;;;;1.63;1.40;;;10.00;99.90;;;;;;2066288;28;20195;-63
2021/05/11 00:44:22;;;;;;;1.55;1.10;;;10.00;99.90;;;;;;2065998;28;20205;-63
2021/05/11 00:45:23;;;;;;;2.17;1.23;;;10.00;99.90;;;;;;2066218;28;20178;-63
2021/05/11 00:46:26;;;;;;;1.60;1.27;;;9.90;99.90;;;;;;2066111;28;20245;-63
2021/05/11 00:47:26;;;;;;;1.55;1.35;;;9.90;99.90;;;;;;2066093;28;20175;-63
2021/05/11 00:48:27;;;;;;;2.13;1.30;;;9.90;99.90;;;;;;2066083;28;20184;-63
2021/05/11 00:49:30;;;;;;;1.53;1.20;;;9.90;99.90;;;;;;2066094;28;20178;-64
2021/05/11 00:50:31;;;;;;;1.33;1.20;;;9.90;99.90;;;;;;2066070;28;20711;-63
2021/05/11 00:51:32;;;;;;;2.50;1.10;;;9.90;99.90;;;;;;2065861;28;20202;-63
2021/05/11 00:52:32;;;;;;;1.13;1.03;;;9.90;99.90;;;;;;2066012;28;20231;-63
2021/05/11 00:53:34;;;;;;;1.67;1.20;;;9.90;99.90;;;;;;2065940;28;20207;-63
2021/05/11 00:54:36;;;;;;;2.42;1.35;;;9.90;99.90;;;;;;2066343;28;20179;-64
2021/05/11 00:55:37;;;;;;;1.70;1.25;;;9.90;99.90;;;;;;2073670;28;20186;-64
2021/05/11 00:56:38;;;;;;;1.20;1.10;;;9.90;99.90;;;;;;2073481;28;20184;-63
2021/05/11 00:57:40;;;;;;;1.83;1.40;;;9.80;99.90;;;;;;2066245;28;20212;-64
2021/05/11 00:58:41;;;;;;;1.30;1.20;;;9.80;99.90;;;;;;2073759;28;20229;-63
2021/05/11 00:59:42;;;;;;;2.27;1.30;;;9.70;99.90;;;;;;2073621;28;20204;-64
2021/05/11 01:00:43;;;;;;;3.03;1.10;;;9.70;99.90;;;;;;2066031;28;20192;-63
2021/05/11 01:01:43;;;;;;;1.23;1.13;;;9.70;99.90;;;;;;2065880;28;20687;-63
2021/05/11 01:02:44;;;;;;;1.80;1.20;;;9.70;99.90;;;;;;2065777;28;20264;-64
2021/05/11 01:03:45;;;;;;;1.10;1.00;;;9.70;99.90;;;;;;2065948;28;20427;-63
2021/05/11 01:04:46;;;;;;;1.40;1.20;;;9.70;99.90;;;;;;2065980;28;20176;-64
2021/05/11 01:05:46;;;;;;;1.20;1.10;;;9.60;99.90;;;;;;2066025;28;20179;-64
2021/05/11 01:06:47;;;;;;;1.93;1.10;;;9.60;99.90;;;;;;2066116;28;20721;-63
2021/05/11 01:07:49;;;;;;;1.43;1.00;;;9.50;99.90;;;;;;2066031;28;20213;-64
2021/05/11 01:08:50;;;;;;;0.90;0.90;;;9.50;99.90;;;;;;2065961;28;20420;-63
2021/05/11 01:09:51;;;;;;;2.60;1.00;;;9.40;99.90;;;;;;2073634;28;20171;-64
2021/05/11 01:10:52;;;;;;;2.90;1.30;;;9.40;99.90;;;;;;2073552;28;20648;-64
2021/05/11 01:11:55;;;;;;;1.33;1.23;;;9.40;99.90;;;;;;2065698;28;20208;-64
2021/05/11 01:12:56;;;;;;;1.40;1.30;;;9.40;99.90;;;;;;2066112;28;20422;-63
2021/05/11 01:13:57;;;;;;;2.27;1.33;;;9.40;99.90;;;;;;2065931;28;20184;-64
2021/05/11 01:14:57;;;;;;;2.10;1.00;;;9.30;99.90;;;;;;2066165;28;20563;-64
2021/05/11 01:15:58;;;;;;;1.20;1.10;;;9.30;99.90;;;;;;2065880;28;20179;-63
2021/05/11 01:17:00;;;;;;;1.20;1.10;;;9.30;99.90;;;;;;2066072;28;20192;-64
2021/05/11 01:18:06;;;;;;;1.20;1.10;;;9.40;99.90;;;;;;2065504;28;20262;-64
2021/05/11 01:20:15;;;;;;;2.10;1.50;;;9.40;99.90;;;;;;2065936;28;20212;-64
2021/05/11 01:22:53;;;;;;;1.33;1.15;;;9.50;99.90;;;;;;2065991;28;20252;-63
2021/05/11 01:24:07;;;;;;;1.00;0.90;;;9.50;99.90;;;;;;2065922;28;20202;-63
2021/05/11 01:25:12;;;;;;;2.30;1.38;;;9.60;99.90;;;;;;2065947;28;20166;-63
2021/05/11 01:26:24;;;;;;;2.03;1.30;;;9.70;99.90;;;;;;2066173;28;20199;-64
2021/05/11 01:27:51;;;;;;;2.75;1.38;;;9.70;99.90;;;;;;2065953;28;20655;-63
2021/05/11 01:29:32;;;;;;;2.85;1.25;;;9.70;99.90;;;;;;2066340;28;20179;-64
2021/05/11 01:30:51;;;;;;;1.23;1.13;;;9.80;99.90;;;;;;2065675;28;20200;-63
2021/05/11 01:45:00;;;;;;;1.67;1.40;;;9.70;99.90;;;;;;2065757;28;20207;-64
2021/05/11 01:49:50;;;;;;;1.77;1.30;;;9.90;99.90;;;;;;2065935;28;20168;-64
2021/05/11 01:52:20;;;;;;;2.00;1.40;;;10.00;99.90;;;;;;2064901;28;20300;-63
2021/05/11 01:54:49;;;;;;;1.20;1.10;;;10.10;99.90;;;;;;2065767;28;20190;-63
2021/05/11 01:56:25;;;;;;;1.38;1.10;;;10.10;99.90;;;;;;2065725;28;20164;-64
2021/05/11 02:23:42;;;;;;;1.70;1.40;;;10.30;99.90;;;;;;2065164;28;20651;-64
2021/05/11 02:24:42;;;;;;;1.13;1.03;;;10.30;99.90;;;;;;2065492;28;20176;-64
2021/05/11 02:25:43;;;;;;;1.10;0.87;;;10.20;99.90;;;;;;2065237;28;20562;-64
2021/05/11 02:26:44;;;;;;;2.67;1.13;;;10.30;99.90;;;;;;2065396;28;20175;-64
2021/05/11 02:27:45;;;;;;;1.10;0.90;;;10.30;99.90;;;;;;2065434;28;20601;-64
2021/05/11 02:28:46;;;;;;;1.33;0.80;;;10.30;99.90;;;;;;2065153;28;20560;-63
2021/05/11 02:29:46;;;;;;;1.00;1.00;;;10.40;99.90;;;;;;2064239;28;20173;-64
2021/05/11 02:30:47;;;;;;;1.00;0.90;;;10.40;99.90;;;;;;2065317;28;20212;-64
2021/05/11 02:31:48;;;;;;;1.63;1.20;;;10.40;99.90;;;;;;2064956;28;20276;-63
2021/05/11 02:32:49;;;;;;;2.10;1.50;;;10.40;99.90;;;;;;2065322;28;20190;-66
2021/05/11 02:33:49;;;;;;;1.67;1.55;;;10.50;99.90;;;;;;2065312;28;20224;-64
2021/05/11 02:34:50;;;;;;;1.70;1.60;;;10.50;99.90;;;;;;2065209;28;20786;-64
2021/05/11 02:35:51;;;;;;;2.10;1.80;;;10.50;99.90;;;;;;2065279;28;20176;-64
2021/05/11 02:36:52;;;;;;;2.00;1.90;;;10.50;99.90;;;;;;2065320;28;20177;-64
2021/05/11 02:37:52;;;;;;;2.37;2.10;;;10.50;99.90;;;;;;2065300;28;20176;-64
2021/05/11 02:38:53;;;;;;;2.20;1.80;;;10.50;99.90;;;;;;2065189;28;20587;-64
2021/05/11 02:39:54;;;;;;;2.77;2.20;;;10.50;99.90;;;;;;2065329;28;20272;-64
2021/05/11 02:40:54;;;;;;;3.07;2.20;;;10.50;99.90;;;;;;2065116;28;20259;-64
2021/05/11 02:41:55;;;;;;;1.93;1.83;;;10.50;99.90;;;;;;2065022;28;20281;-63
2021/05/11 02:43:05;;;;;;;2.40;2.20;;;10.50;99.90;;;;;;2065116;28;20173;-63
2021/05/11 02:44:06;;;;;;;2.38;2.17;;;10.60;99.90;;;;;;2065247;28;20213;-63
2021/05/11 02:45:13;;;;;;;2.20;2.00;;;10.60;99.90;;;;;;2064939;28;20184;-63
2021/05/11 02:46:14;;;;;;;2.40;2.20;;;10.50;99.90;;;;;;2065168;28;20190;-63
2021/05/11 02:47:14;;;;;;;3.03;2.40;;;10.50;99.90;;;;;;2065124;28;20176;-64
2021/05/11 02:48:15;;;;;;;3.63;2.30;;;10.60;99.90;;;;;;2065320;28;20252;-65
2021/05/11 02:49:18;;;;;;;2.63;2.37;;;10.60;99.90;;;;;;2065187;28;20224;-64
2021/05/11 02:50:27;;;;;;;2.95;2.28;;;10.60;99.90;;;;;;2065267;28;20253;-64
2021/05/11 02:51:28;;;;;;;3.88;2.13;;;10.60;99.90;;;;;;2064886;28;20202;-64
2021/05/11 02:52:29;;;;;;;2.20;2.00;;;10.60;99.90;;;;;;2065270;28;20185;-64
2021/05/11 02:53:29;;;;;;;2.50;2.30;;;10.70;99.90;;;;;;2064530;28;20719;-63
2021/05/11 02:54:30;;;;;;;2.30;2.10;;;10.70;99.90;;;;;;2064551;28;20207;-64
2021/05/11 02:55:32;;;;;;;1.90;1.70;;;10.70;99.90;;;;;;2072460;28;20205;-64
2021/05/11 02:56:32;;;;;;;1.90;1.80;;;10.70;99.90;;;;;;2072531;28;20285;-64
2021/05/11 02:57:33;;;;;;;1.90;1.80;;;10.70;99.90;;;;;;2065106;28;20671;-64
2021/05/11 02:58:35;;;;;;;2.33;1.90;;;10.70;99.90;;;;;;2065181;28;20184;-64
2021/05/11 02:59:36;;;;;;;1.65;1.55;;;10.60;99.90;;;;;;2064970;28;20562;-63
2021/05/11 03:00:37;;;;;;;2.10;1.93;;;10.60;99.90;;;;;;2065133;28;20264;-64
2021/05/11 03:01:38;;;;;;;2.27;1.80;;;10.50;99.90;;;;;;2064790;28;20204;-63
2021/05/11 03:02:38;;;;;;;2.10;1.93;;;10.50;99.90;;;;;;2065105;28;20637;-63
2021/05/11 03:03:39;;;;;;;1.90;1.80;;;10.50;99.90;;;;;;2065021;28;20319;-63
2021/05/11 03:04:40;;;;;;;2.30;2.10;;;10.60;99.90;;;;;;2065109;28;20184;-64
2021/05/11 03:05:40;;;;;;;2.20;1.80;;;10.60;99.90;;;;;;2065053;28;20526;-64
2021/05/11 03:06:41;;;;;;;2.47;2.20;;;10.60;99.90;;;;;;2065034;28;20236;-64
2021/05/11 03:07:42;;;;;;;2.23;1.80;;;10.70;99.90;;;;;;2064983;28;20197;-63
2021/05/11 03:08:44;;;;;;;2.10;1.90;;;10.60;99.90;;;;;;2065126;28;20640;-63
2021/05/11 03:09:44;;;;;;;2.35;2.10;;;10.60;99.90;;;;;;2064870;28;20204;-63
2021/05/11 03:10:45;;;;;;;1.60;1.50;;;10.60;99.90;;;;;;2065061;28;20731;-64
2021/05/11 03:11:46;;;;;;;1.93;1.70;;;10.70;99.90;;;;;;2064612;28;20209;-63
2021/05/11 03:12:47;;;;;;;2.40;1.93;;;10.70;99.90;;;;;;2064908;28;20582;-64
2021/05/11 03:13:48;;;;;;;2.33;2.13;;;10.70;99.90;;;;;;2064776;28;20677;-64
2021/05/11 03:14:49;;;;;;;1.77;1.67;;;10.80;99.90;;;;;;2064932;28;20178;-64
2021/05/11 03:15:49;;;;;;;2.75;1.50;;;10.70;99.90;;;;;;2064894;28;20213;-64
2021/05/11 03:16:52;;;;;;;3.30;1.53;;;10.80;99.90;;;;;;2064964;28;20185;-63
2021/05/11 03:17:53;;;;;;;1.95;1.80;;;10.80;99.90;;;;;;2064698;28;20209;-64
2021/05/11 03:18:54;;;;;;;5.57;1.70;;;10.80;99.90;;;;;;2064984;28;20544;-64
2021/05/11 03:19:55;;;;;;;2.20;1.60;;;10.80;99.90;;;;;;2064852;28;20244;-64
2021/05/11 03:20:55;;;;;;;5.53;1.70;;;10.70;99.90;;;;;;2064971;28;20184;-63
2021/05/11 03:21:56;;;;;;;2.70;1.70;;;10.60;99.90;;;;;;2064509;28;20188;-64
2021/05/11 03:22:57;;;;;;;1.93;1.80;;;10.60;99.90;;;;;;2064918;28;20267;-63
2021/05/11 03:23:57;;;;;;;2.97;1.77;;;10.60;99.90;;;;;;2064756;28;20725;-64
2021/05/11 03:24:58;;;;;;;2.13;1.70;;;10.60;99.90;;;;;;2064953;28;20184;-63
2021/05/11 03:25:59;;;;;;;2.33;2.13;;;10.60;99.90;;;;;;2064898;28;20181;-64
2021/05/11 03:26:59;;;;;;;4.80;1.70;;;10.60;99.90;;;;;;2064988;28;20191;-63
2021/05/11 03:28:00;;;;;;;2.53;1.80;;;10.50;99.90;;;;;;2064900;28;20188;-64
2021/05/11 03:29:01;;;;;;;2.57;1.70;;;10.60;99.90;;;;;;2064930;28;20189;-64
2021/05/11 03:30:05;;;;;;;3.55;2.00;;;10.60;99.90;;;;;;2064923;28;20231;-64
2021/05/11 03:31:05;;;;;;;2.45;2.00;;;10.60;99.90;;;;;;2064707;28;20653;-63
2021/05/11 03:32:07;;;;;;;1.60;1.50;;;10.50;99.90;;;;;;2064818;28;20181;-64
2021/05/11 03:33:09;;;;;;;2.35;1.60;;;10.40;99.90;;;;;;2064777;28;20193;-63
2021/05/11 03:34:10;;;;;;;2.08;1.70;;;10.50;99.90;;;;;;2064816;28;20193;-64
2021/05/11 03:35:11;;;;;;;2.70;1.90;;;10.50;99.90;;;;;;2064738;28;20220;-63
2021/05/11 03:36:12;;;;;;;1.53;1.30;;;10.50;99.90;;;;;;2064993;28;20598;-64
2021/05/11 03:37:12;;;;;;;1.90;1.70;;;10.50;99.90;;;;;;2064703;28;20182;-64
2021/05/11 03:38:14;;;;;;;1.40;1.30;;;10.50;99.90;;;;;;2064860;28;20212;-64
2021/05/11 03:39:15;;;;;;;2.50;1.80;;;10.50;99.90;;;;;;2064750;28;20192;-63
2021/05/11 03:40:15;;;;;;;1.70;1.60;;;10.60;99.90;;;;;;2065018;28;20187;-64
2021/05/11 03:41:17;;;;;;;9.20;5.73;;;10.50;99.90;;;;;;2064270;28;20189;-64
2021/05/11 03:43:24;;;;;;;51.63;31.95;;;10.40;99.90;;;;;;2064887;28;20191;-64
2021/05/11 03:44:28;;;;;;;36.90;23.13;;;10.50;99.90;;;;;;2064947;28;20204;-64
2021/05/11 03:45:34;;;;;;;15.10;8.52;;;10.50;99.90;;;;;;2064743;28;20606;-64
2021/05/11 03:46:36;;;;;;;4.13;3.50;;;10.50;99.90;;;;;;2064798;28;20626;-64
2021/05/11 03:47:46;;;;;;;4.10;2.38;;;10.60;99.90;;;;;;2064795;28;20602;-63
2021/05/11 03:48:47;;;;;;;4.65;2.58;;;10.60;99.90;;;;;;2064878;28;20256;-63
2021/05/11 03:49:47;;;;;;;6.00;2.17;;;10.60;99.90;;;;;;2064667;28;20172;-63
2021/05/11 03:50:48;;;;;;;3.63;2.13;;;10.60;99.90;;;;;;2072323;28;20189;-63
2021/05/11 03:51:49;;;;;;;3.53;2.23;;;10.60;99.90;;;;;;2071894;28;20192;-63
2021/05/11 03:52:50;;;;;;;2.53;2.07;;;10.70;99.90;;;;;;2064696;28;20279;-64
2021/05/11 03:53:50;;;;;;;2.43;2.20;;;10.70;99.90;;;;;;2064495;28;20181;-63
2021/05/11 03:54:51;;;;;;;3.27;1.80;;;10.70;99.90;;;;;;2064580;28;20687;-64
2021/05/11 03:55:52;;;;;;;3.30;2.00;;;10.70;99.90;;;;;;2064384;28;20184;-63
2021/05/11 03:56:53;;;;;;;2.08;1.88;;;10.70;99.90;;;;;;2064598;28;20261;-63
2021/05/11 03:57:53;;;;;;;4.67;2.30;;;10.70;99.90;;;;;;2064481;28;20181;-63
2021/05/11 03:58:55;;;;;;;3.20;2.20;;;10.70;99.90;;;;;;2064586;28;20178;-63
2021/05/11 03:59:55;;;;;;;1.80;1.70;;;10.70;99.90;;;;;;2064421;28;20649;-63
2021/05/11 04:00:56;;;;;;;2.00;1.80;;;10.70;99.90;;;;;;2064435;28;20235;-64
2021/05/11 04:01:58;;;;;;;2.00;1.80;;;10.70;99.90;;;;;;2064200;28;20192;-63
2021/05/11 04:02:58;;;;;;;4.10;2.10;;;10.60;99.90;;;;;;2064583;28;20205;-64
2021/05/11 04:03:59;;;;;;;2.17;1.57;;;10.60;99.90;;;;;;2064439;28;20547;-63
2021/05/11 04:05:06;;;;;;;2.93;1.80;;;10.60;99.90;;;;;;2064568;28;20244;-63
2021/05/11 04:06:06;;;;;;;1.70;1.60;;;10.70;99.90;;;;;;2064529;28;20196;-63
2021/05/11 04:07:08;;;;;;;1.80;1.50;;;10.70;99.90;;;;;;2064509;28;20204;-64
2021/05/11 04:08:08;;;;;;;1.80;1.70;;;10.80;99.90;;;;;;2064453;28;20696;-63
2021/05/11 04:09:16;;;;;;;1.60;1.27;;;10.80;99.90;;;;;;2064924;28;20182;-63
2021/05/11 04:17:12;;;;;;;1.55;1.20;;;10.80;99.90;;;;;;2072767;28;20533;-69
2021/05/11 04:18:13;;;;;;;1.40;1.23;;;10.80;99.90;;;;;;2072015;28;20280;-71
2021/05/11 04:19:14;;;;;;;1.30;1.20;;;10.80;99.90;;;;;;2072127;28;20624;-70
2021/05/11 04:20:15;;;;;;;1.93;1.17;;;10.80;99.90;;;;;;2072599;28;20184;-70
2021/05/11 04:21:17;;;;;;;1.57;1.13;;;10.80;99.90;;;;;;2072451;28;20270;-71
2021/05/11 04:22:17;;;;;;;1.20;1.10;;;10.80;99.90;;;;;;2071892;28;20272;-70
2021/05/11 04:23:18;;;;;;;1.10;1.00;;;10.80;99.90;;;;;;2071945;28;20521;-70
2021/05/11 04:24:23;;;;;;;1.30;1.20;;;10.90;99.90;;;;;;2073077;28;20254;-71
2021/05/11 04:25:24;;;;;;;2.10;1.25;;;10.90;99.90;;;;;;2073841;28;20187;-70
2021/05/11 04:26:24;;;;;;;2.17;1.10;;;10.90;99.90;;;;;;2073813;28;20192;-69
2021/05/11 04:27:25;;;;;;;5.50;1.10;;;11.00;99.90;;;;;;2073795;28;20188;-71
2021/05/11 04:28:27;;;;;;;2.10;0.83;;;11.00;99.90;;;;;;2073849;28;20228;-69
2021/05/11 04:29:28;;;;;;;1.00;1.00;;;10.90;99.90;;;;;;2074109;28;20181;-68
2021/05/11 04:30:29;;;;;;;1.95;1.20;;;11.00;99.90;;;;;;2073912;28;20267;-70
2021/05/11 04:31:33;;;;;;;1.10;0.93;;;10.90;99.90;;;;;;2073282;28;20248;-68
2021/05/11 04:32:34;;;;;;;1.75;0.95;;;10.90;99.90;;;;;;2073422;28;20271;-71
2021/05/11 04:33:35;;;;;;;1.00;0.90;;;10.90;99.90;;;;;;2074014;28;20204;-71
2021/05/11 04:34:35;;;;;;;1.00;0.90;;;10.90;99.90;;;;;;2073432;28;20185;-69
2021/05/11 04:35:36;;;;;;;1.73;1.00;;;10.90;99.90;;;;;;2073693;28;20189;-70
2021/05/11 04:36:37;;;;;;;1.30;1.20;;;10.90;99.90;;;;;;2074026;28;20188;-69
2021/05/11 04:37:37;;;;;;;1.30;1.20;;;10.90;99.90;;;;;;2074221;28;20736;-69
2021/05/11 04:38:38;;;;;;;2.57;1.10;;;10.90;99.90;;;;;;2073976;28;20181;-69
2021/05/11 04:39:39;;;;;;;1.10;1.00;;;10.90;99.90;;;;;;2074212;28;20668;-69
2021/05/11 04:40:40;;;;;;;1.20;1.10;;;11.00;99.90;;;;;;2074194;28;20188;-69
2021/05/11 04:41:40;;;;;;;1.10;1.00;;;11.00;99.90;;;;;;2073435;28;20187;-69
2021/05/11 04:42:43;;;;;;;1.43;0.80;;;11.20;99.90;;;;;;2073503;28;20185;-69
2021/05/11 04:43:45;;;;;;;1.67;0.88;;;11.20;99.90;;;;;;2073972;28;20223;-69
2021/05/11 04:44:46;;;;;;;0.90;0.90;;;11.20;99.90;;;;;;2073855;28;20185;-69
2021/05/11 04:45:47;;;;;;;1.10;1.00;;;11.20;99.90;;;;;;2074144;28;20170;-68
2021/05/11 04:46:51;;;;;;;1.00;0.87;;;11.30;99.90;;;;;;2074090;28;20644;-68
2021/05/11 04:47:54;;;;;;;0.70;0.70;;;11.40;99.90;;;;;;2074219;28;20176;-69
2021/05/11 04:48:54;;;;;;;1.80;0.82;;;11.40;99.90;;;;;;2073348;28;20182;-69
2021/05/11 04:49:58;;;;;;;0.93;0.87;;;11.40;99.90;;;;;;2073519;28;20180;-69
2021/05/11 04:50:58;;;;;;;0.80;0.80;;;11.50;99.90;;;;;;2074261;28;20182;-70
2021/05/11 04:52:00;;;;;;;1.20;1.10;;;11.50;99.90;;;;;;2074307;28;20551;-70
2021/05/11 04:53:01;;;;;;;1.10;1.00;;;11.50;99.90;;;;;;2074990;28;20706;-70
2021/05/11 04:54:02;;;;;;;1.20;1.10;;;11.50;99.90;;;;;;2075927;28;20223;-70
2021/05/11 04:55:02;;;;;;;1.15;0.90;;;11.50;99.90;;;;;;2075806;28;20818;-70
2021/05/11 04:56:04;;;;;;;1.40;0.97;;;11.50;99.90;;;;;;2075745;28;20245;-69
2021/05/11 04:57:05;;;;;;;0.80;0.80;;;11.50;99.90;;;;;;2075788;28;20182;-69
2021/05/11 04:58:06;;;;;;;3.47;1.20;;;11.50;99.90;;;;;;2075655;28;20195;-69
2021/05/11 04:59:07;;;;;;;1.37;1.20;;;11.60;99.90;;;;;;2075555;28;20185;-69
2021/05/11 05:00:10;;;;;;;0.90;0.90;;;11.60;99.90;;;;;;2075421;28;20269;-70
2021/05/11 05:01:10;;;;;;;1.58;1.00;;;11.60;99.90;;;;;;2075241;28;20265;-70
2021/05/11 05:02:11;;;;;;;1.00;0.90;;;11.70;99.90;;;;;;2074778;28;20185;-69
2021/05/11 05:03:15;;;;;;;1.90;1.10;;;11.70;99.90;;;;;;2074916;28;20188;-70
2021/05/11 05:04:16;;;;;;;1.20;1.10;;;11.60;99.90;;;;;;2075514;28;20676;-70
2021/05/11 05:05:17;;;;;;;0.98;0.98;;;11.60;99.90;;;;;;2074905;28;20273;-70
2021/05/11 05:06:18;;;;;;;1.00;1.00;;;11.60;99.90;;;;;;2066870;28;20183;-70
2021/05/11 05:07:19;;;;;;;1.55;1.10;;;11.60;99.90;;;;;;2074953;28;20205;-70
2021/05/11 05:08:20;;;;;;;1.00;0.90;;;11.70;99.90;;;;;;2075455;28;20196;-70
2021/05/11 05:09:20;;;;;;;0.93;0.93;;;11.70;99.90;;;;;;2075495;28;20202;-69
2021/05/11 05:10:21;;;;;;;1.03;0.80;;;11.70;99.90;;;;;;2075312;28;20188;-69
2021/05/11 05:11:22;;;;;;;1.07;0.97;;;11.80;99.90;;;;;;2075122;28;20185;-70
2021/05/11 05:12:22;;;;;;;1.30;0.90;;;11.60;99.90;;;;;;2075598;28;20212;-70
2021/05/11 05:13:25;;;;;;;1.13;0.87;;;11.60;99.90;;;;;;2075382;28;20607;-69
2021/05/11 05:14:25;;;;;;;0.95;0.85;;;11.60;99.90;;;;;;2075346;28;20193;-69
2021/05/11 05:15:26;;;;;;;0.80;0.80;;;11.70;99.90;;;;;;2075441;28;20209;-69
2021/05/11 05:16:28;;;;;;;1.00;0.90;;;11.70;99.90;;;;;;2075245;28;20257;-70
2021/05/11 05:17:29;;;;;;;1.30;1.00;;;11.70;99.90;;;;;;2075429;28;20558;-70
2021/05/11 05:18:31;;;;;;;1.10;1.00;;;11.80;99.90;;;;;;2075348;28;20189;-70
2021/05/11 05:19:31;;;;;;;0.80;0.80;;;11.80;99.90;;;;;;2075405;28;20217;-70
2021/05/11 05:20:32;;;;;;;0.80;0.77;;;11.80;99.90;;;;;;2075222;28;20712;-69
2021/05/11 05:21:33;;;;;;;0.80;0.80;;;11.80;99.90;;;;;;2075033;28;20186;-70
2021/05/11 05:22:34;;;;;;;1.03;0.70;;;11.90;99.90;;;;;;2075006;28;20241;-70
2021/05/11 05:23:44;;;;;;;0.85;0.80;;;11.80;99.90;;;;;;2074722;28;20201;-70
2021/05/11 05:24:59;;;;;;;0.80;0.70;;;11.90;99.90;;;;;;2074893;28;20248;-70
2021/05/11 05:26:05;;;;;;;1.15;1.00;;;12.00;99.90;;;;;;2075551;28;20170;-69
2021/05/11 05:27:21;;;;;;;1.08;0.90;;;12.00;99.90;;;;;;2075197;28;20170;-70
2021/05/11 05:28:22;;;;;;;1.30;1.08;;;12.00;99.90;;;;;;2074664;28;20577;-69
2021/05/11 05:29:22;;;;;;;1.07;0.90;;;12.10;99.90;;;;;;2074615;28;20177;-69
2021/05/11 05:30:24;;;;;;;1.43;1.10;;;12.10;99.90;;;;;;2074606;28;20268;-68
2021/05/11 05:31:25;;;;;;;1.27;1.00;;;12.20;99.90;;;;;;2066355;28;20186;-69
2021/05/11 05:32:25;;;;;;;1.63;0.87;;;12.30;99.90;;;;;;2074785;28;20200;-69
2021/05/11 05:33:37;;;;;;;1.10;0.90;;;12.20;99.90;;;;;;2074238;28;20178;-70
2021/05/11 05:34:38;;;;;;;1.20;0.80;;;12.30;99.90;;;;;;2074844;28;20249;-70
2021/05/11 05:35:39;;;;;;;1.20;0.80;;;12.30;99.90;;;;;;2075252;28;20178;-69
2021/05/11 05:36:40;;;;;;;1.90;0.87;;;12.30;99.90;;;;;;2075148;28;20240;-70
2021/05/11 05:37:40;;;;;;;0.80;0.80;;;12.30;99.90;;;;;;2073715;28;20182;-69
2021/05/11 05:38:42;;;;;;;1.80;0.90;;;12.30;99.90;;;;;;2073478;28;20265;-70
2021/05/11 05:39:46;;;;;;;0.80;0.70;;;12.40;99.90;;;;;;2073122;28;20185;-70
2021/05/11 05:40:54;;;;;;;0.80;0.80;;;12.40;99.90;;;;;;2073017;28;20181;-70
2021/05/11 05:41:54;;;;;;;0.75;0.70;;;12.30;99.90;;;;;;2072818;28;20173;-70
2021/05/11 05:42:55;;;;;;;0.70;0.70;;;12.30;99.90;;;;;;2072937;28;20224;-70
2021/05/11 05:43:58;;;;;;;0.70;0.70;;;12.30;99.90;;;;;;2073319;28;20202;-70
2021/05/11 05:44:58;;;;;;;0.80;0.63;;;12.30;99.90;;;;;;2073511;28;20178;-70
2021/05/11 05:45:59;;;;;;;0.80;0.70;;;12.40;99.90;;;;;;2073724;28;20558;-69
2021/05/11 05:47:01;;;;;;;3.50;0.80;;;12.40;99.90;;;;;;2073529;28;20590;-70
2021/05/11 05:48:01;;;;;;;0.60;0.60;;;12.50;99.90;;;;;;2073018;28;20177;-70
2021/05/11 05:49:02;;;;;;;0.80;0.70;;;12.50;99.90;;;;;;2072858;28;20687;-70
2021/05/11 05:50:08;;;;;;;0.60;0.60;;;12.50;99.90;;;;;;2073518;28;20185;-70
2021/05/11 05:51:09;;;;;;;0.70;0.70;;;12.50;99.90;;;;;;2073436;28;20164;-70
2021/05/11 05:52:16;;;;;;;0.60;0.60;;;12.50;99.90;;;;;;2073450;28;20173;-70
2021/05/11 05:53:23;;;;;;;1.30;0.50;;;12.40;99.90;;;;;;2072717;28;20452;-70
2021/05/11 05:54:24;;;;;;;0.50;0.50;;;12.40;99.90;;;;;;2072893;28;20588;-70
2021/05/11 05:55:25;;;;;;;0.50;0.50;;;12.40;99.90;;;;;;2073491;28;20181;-69
2021/05/11 05:56:25;;;;;;;0.40;0.40;;;12.50;99.90;;;;;;2073499;28;20667;-69
2021/05/11 05:57:26;;;;;;;0.60;0.60;;;12.50;99.90;;;;;;2073456;28;20181;-69
2021/05/11 05:58:27;;;;;;;0.60;0.55;;;12.40;99.90;;;;;;2073423;28;20202;-70
2021/05/11 05:59:28;;;;;;;1.57;0.60;;;12.40;99.90;;;;;;2073443;28;20768;-70
2021/05/11 06:00:29;;;;;;;0.50;0.50;;;12.40;99.90;;;;;;2073445;28;20189;-70
2021/05/11 06:01:29;;;;;;;0.47;0.47;;;12.40;99.90;;;;;;2073297;28;20718;-70
2021/05/11 06:02:30;;;;;;;0.50;0.50;;;12.40;99.90;;;;;;2073431;28;20196;-70
2021/05/11 06:04:45;;;;;;;0.60;0.50;;;12.30;99.90;;;;;;2081856;28;20665;-69
2021/05/11 06:05:46;;;;;;;0.87;0.60;;;12.20;99.90;;;;;;2081688;28;20181;-70
2021/05/11 06:06:48;;;;;;;2.03;0.60;;;12.20;99.90;;;;;;2081606;28;20220;-70
2021/05/11 06:07:50;;;;;;;0.55;0.55;;;12.20;99.90;;;;;;2081527;28;20656;-69
2021/05/11 06:08:51;;;;;;;0.50;0.50;;;12.20;99.90;;;;;;2081971;28;20185;-70
2021/05/11 06:09:54;;;;;;;0.90;0.70;;;12.20;99.90;;;;;;2081940;28;20181;-70
2021/05/11 06:11:13;;;;;;;0.40;0.40;;;12.20;99.90;;;;;;2081700;28;20234;-73
2021/05/11 06:12:27;;;;;;;0.50;0.50;;;12.30;99.90;;;;;;2080851;28;20505;-73
2021/05/11 06:17:13;;;;;;;0.60;0.60;;;12.30;99.90;;;;;;2048040;29;20199;-72
2021/05/11 06:17:41;;;;;;;0.60;0.50;;;12.30;99.90;;;;;;2080691;28;20243;-73
2021/05/11 06:18:42;;;;;;;0.60;0.60;;;12.30;99.90;;;;;;2074888;28;20668;-72
2021/05/11 06:19:52;;;;;;;0.60;0.60;;;12.20;99.90;;;;;;2080959;28;20184;-72
2021/05/11 06:20:53;;;;;;;0.57;0.57;;;12.30;99.90;;;;;;2087605;28;20434;-73
2021/05/11 06:21:53;;;;;;;0.50;0.50;;;12.20;99.90;;;;;;2080958;28;20173;-73
2021/05/11 06:22:54;;;;;;;0.63;0.63;;;12.20;99.90;;;;;;2081372;28;20180;-72
2021/05/11 06:23:55;;;;;;;0.50;0.50;;;12.30;99.90;;;;;;2080712;28;20218;-72
2021/05/11 06:24:55;;;;;;;0.50;0.50;;;12.30;99.90;;;;;;2080755;28;20177;-72